sensor_id;sensor_type;location;lat;lon;timestamp;temperature;humidity
7902;DHT22;3996;49.674;10.716;2022-12-29T00:01:54;7.10;50.60
7902;DHT22;3996;49.674;10.716;2022-12-29T00:04:21;7.10;50.60
7902;DHT22;3996;49.674;10.716;2022-12-29T00:06:47;7.20;50.80
7902;DHT22;3996;49.674;10.716;2022-12-29T00:09:14;7.20;51.00
7902;DHT22;3996;49.674;10.716;2022-12-29T00:11:40;7.20;50.60
7902;DHT22;3996;49.674;10.716;2022-12-29T00:14:07;7.20;50.70
7902;DHT22;3996;49.674;10.716;2022-12-29T00:16:52;7.20;50.70
7902;DHT22;3996;49.674;10.716;2022-12-29T00:19:17;7.20;50.80
7902;DHT22;3996;49.674;10.716;2022-12-29T00:22:01;7.20;50.70
7902;DHT22;3996;49.674;10.716;2022-12-29T00:24:45;7.20;50.50
7902;DHT22;3996;49.674;10.716;2022-12-29T00:27:31;7.20;50.50
7902;DHT22;3996;49.674;10.716;2022-12-29T00:30:21;7.30;50.90
7902;DHT22;3996;49.674;10.716;2022-12-29T00:36:11;7.40;49.70
7902;DHT22;3996;49.674;10.716;2022-12-29T00:38:41;7.40;49.60
7902;DHT22;3996;49.674;10.716;2022-12-29T00:41:26;7.50;48.90
7902;DHT22;3996;49.674;10.716;2022-12-29T00:44:13;7.50;48.70
7902;DHT22;3996;49.674;10.716;2022-12-29T00:46:40;7.50;48.80
7902;DHT22;3996;49.674;10.716;2022-12-29T00:49:08;7.50;48.80
7902;DHT22;3996;49.674;10.716;2022-12-29T00:51:54;7.50;49.00
7902;DHT22;3996;49.674;10.716;2022-12-29T00:54:20;7.60;48.80
7902;DHT22;3996;49.674;10.716;2022-12-29T00:56:48;7.60;48.50
7902;DHT22;3996;49.674;10.716;2022-12-29T00:59:14;7.60;48.90
7902;DHT22;3996;49.674;10.716;2022-12-29T01:01:40;7.60;49.40
7902;DHT22;3996;49.674;10.716;2022-12-29T01:04:06;7.50;49.60
7902;DHT22;3996;49.674;10.716;2022-12-29T01:06:32;7.50;50.30
7902;DHT22;3996;49.674;10.716;2022-12-29T01:08:59;7.50;50.10
7902;DHT22;3996;49.674;10.716;2022-12-29T01:11:43;7.50;50.50
7902;DHT22;3996;49.674;10.716;2022-12-29T01:14:08;7.50;50.90
7902;DHT22;3996;49.674;10.716;2022-12-29T01:16:34;7.50;50.70
7902;DHT22;3996;49.674;10.716;2022-12-29T01:19:01;7.50;50.60
7902;DHT22;3996;49.674;10.716;2022-12-29T01:21:27;7.50;50.50
7902;DHT22;3996;49.674;10.716;2022-12-29T01:23:53;7.50;50.40
7902;DHT22;3996;49.674;10.716;2022-12-29T01:26:18;7.60;50.60
7902;DHT22;3996;49.674;10.716;2022-12-29T01:28:44;7.60;49.70
7902;DHT22;3996;49.674;10.716;2022-12-29T01:31:12;7.70;49.80
7902;DHT22;3996;49.674;10.716;2022-12-29T01:33:38;7.70;49.50
7902;DHT22;3996;49.674;10.716;2022-12-29T01:36:09;7.70;49.40
7902;DHT22;3996;49.674;10.716;2022-12-29T01:38:37;7.70;49.40
7902;DHT22;3996;49.674;10.716;2022-12-29T01:41:03;7.80;49.50
7902;DHT22;3996;49.674;10.716;2022-12-29T01:43:45;7.80;49.30
7902;DHT22;3996;49.674;10.716;2022-12-29T01:46:21;7.90;48.40
7902;DHT22;3996;49.674;10.716;2022-12-29T01:48:53;7.90;48.70
7902;DHT22;3996;49.674;10.716;2022-12-29T01:51:21;7.90;48.40
7902;DHT22;3996;49.674;10.716;2022-12-29T01:53:47;8.00;48.50
7902;DHT22;3996;49.674;10.716;2022-12-29T01:56:15;7.90;48.40
7902;DHT22;3996;49.674;10.716;2022-12-29T01:58:44;7.90;48.70
7902;DHT22;3996;49.674;10.716;2022-12-29T02:01:11;7.90;48.80
7902;DHT22;3996;49.674;10.716;2022-12-29T02:03:37;7.90;49.30
7902;DHT22;3996;49.674;10.716;2022-12-29T02:06:09;7.90;48.60
7902;DHT22;3996;49.674;10.716;2022-12-29T02:08:38;8.00;48.50
7902;DHT22;3996;49.674;10.716;2022-12-29T02:11:05;8.00;48.50
7902;DHT22;3996;49.674;10.716;2022-12-29T02:13:31;8.00;48.50
7902;DHT22;3996;49.674;10.716;2022-12-29T02:22:52;7.90;49.70
7902;DHT22;3996;49.674;10.716;2022-12-29T02:30:50;7.90;50.40
7902;DHT22;3996;49.674;10.716;2022-12-29T02:33:44;7.90;50.20
7902;DHT22;3996;49.674;10.716;2022-12-29T02:39:15;7.90;50.70
7902;DHT22;3996;49.674;10.716;2022-12-29T02:47:03;7.80;51.50
7902;DHT22;3996;49.674;10.716;2022-12-29T02:49:40;7.80;52.10
7902;DHT22;3996;49.674;10.716;2022-12-29T02:52:16;7.70;52.00
7902;DHT22;3996;49.674;10.716;2022-12-29T02:54:42;7.70;52.20
7902;DHT22;3996;49.674;10.716;2022-12-29T02:59:36;7.80;52.00
7902;DHT22;3996;49.674;10.716;2022-12-29T03:07:56;8.40;49.50
7902;DHT22;3996;49.674;10.716;2022-12-29T03:13:26;8.70;48.20
7902;DHT22;3996;49.674;10.716;2022-12-29T03:19:04;8.80;47.40
7902;DHT22;3996;49.674;10.716;2022-12-29T03:21:44;8.90;47.10
7902;DHT22;3996;49.674;10.716;2022-12-29T03:24:35;8.90;47.80
7902;DHT22;3996;49.674;10.716;2022-12-29T03:27:04;8.90;47.80
7902;DHT22;3996;49.674;10.716;2022-12-29T03:29:35;8.90;47.60
7902;DHT22;3996;49.674;10.716;2022-12-29T03:32:05;9.00;47.30
7902;DHT22;3996;49.674;10.716;2022-12-29T03:34:33;9.00;47.10
7902;DHT22;3996;49.674;10.716;2022-12-29T03:37:06;9.00;47.00
7902;DHT22;3996;49.674;10.716;2022-12-29T03:39:33;9.10;46.70
7902;DHT22;3996;49.674;10.716;2022-12-29T03:42:02;9.10;46.40
7902;DHT22;3996;49.674;10.716;2022-12-29T03:44:39;9.10;46.70
7902;DHT22;3996;49.674;10.716;2022-12-29T03:47:06;9.00;46.90
7902;DHT22;3996;49.674;10.716;2022-12-29T03:49:32;9.00;47.10
7902;DHT22;3996;49.674;10.716;2022-12-29T03:51:58;9.00;47.00
7902;DHT22;3996;49.674;10.716;2022-12-29T03:54:24;9.00;46.60
7902;DHT22;3996;49.674;10.716;2022-12-29T03:56:50;9.10;46.20
7902;DHT22;3996;49.674;10.716;2022-12-29T03:59:15;9.10;47.10
7902;DHT22;3996;49.674;10.716;2022-12-29T04:01:41;8.90;48.00
7902;DHT22;3996;49.674;10.716;2022-12-29T04:04:06;8.70;48.40
7902;DHT22;3996;49.674;10.716;2022-12-29T04:06:32;8.60;48.00
7902;DHT22;3996;49.674;10.716;2022-12-29T04:08:58;8.60;47.90
7902;DHT22;3996;49.674;10.716;2022-12-29T04:11:23;8.60;48.20
7902;DHT22;3996;49.674;10.716;2022-12-29T04:13:49;8.60;48.20
7902;DHT22;3996;49.674;10.716;2022-12-29T04:16:14;8.50;48.40
7902;DHT22;3996;49.674;10.716;2022-12-29T04:18:40;8.50;48.60
7902;DHT22;3996;49.674;10.716;2022-12-29T04:21:06;8.40;49.10
7902;DHT22;3996;49.674;10.716;2022-12-29T04:23:35;8.30;49.90
7902;DHT22;3996;49.674;10.716;2022-12-29T04:26:01;8.30;50.80
7902;DHT22;3996;49.674;10.716;2022-12-29T04:28:27;8.20;50.80
7902;DHT22;3996;49.674;10.716;2022-12-29T04:30:53;8.10;51.20
7902;DHT22;3996;49.674;10.716;2022-12-29T04:33:19;8.10;51.30
7902;DHT22;3996;49.674;10.716;2022-12-29T04:35:44;8.10;51.20
7902;DHT22;3996;49.674;10.716;2022-12-29T04:38:10;8.10;50.30
7902;DHT22;3996;49.674;10.716;2022-12-29T04:40:38;8.10;50.30
7902;DHT22;3996;49.674;10.716;2022-12-29T04:43:05;8.10;51.10
7902;DHT22;3996;49.674;10.716;2022-12-29T04:45:30;8.10;50.20
7902;DHT22;3996;49.674;10.716;2022-12-29T04:47:56;8.10;50.40
7902;DHT22;3996;49.674;10.716;2022-12-29T04:50:21;8.10;50.00
7902;DHT22;3996;49.674;10.716;2022-12-29T04:52:47;8.10;50.00
7902;DHT22;3996;49.674;10.716;2022-12-29T04:55:13;8.10;50.40
7902;DHT22;3996;49.674;10.716;2022-12-29T04:57:38;8.10;50.70
7902;DHT22;3996;49.674;10.716;2022-12-29T05:00:04;8.10;50.60
7902;DHT22;3996;49.674;10.716;2022-12-29T05:02:30;8.10;50.60
7902;DHT22;3996;49.674;10.716;2022-12-29T05:04:56;8.10;50.50
7902;DHT22;3996;49.674;10.716;2022-12-29T05:07:21;8.00;51.10
7902;DHT22;3996;49.674;10.716;2022-12-29T05:09:47;8.00;52.20
7902;DHT22;3996;49.674;10.716;2022-12-29T05:12:13;7.90;52.60
7902;DHT22;3996;49.674;10.716;2022-12-29T05:14:38;7.90;53.20
7902;DHT22;3996;49.674;10.716;2022-12-29T05:17:04;7.90;52.90
7902;DHT22;3996;49.674;10.716;2022-12-29T05:19:29;7.80;53.30
7902;DHT22;3996;49.674;10.716;2022-12-29T05:21:55;7.70;55.00
7902;DHT22;3996;49.674;10.716;2022-12-29T05:24:21;7.60;55.50
7902;DHT22;3996;49.674;10.716;2022-12-29T05:26:46;7.50;55.30
7902;DHT22;3996;49.674;10.716;2022-12-29T05:29:12;7.50;55.30
7902;DHT22;3996;49.674;10.716;2022-12-29T05:31:37;7.40;55.60
7902;DHT22;3996;49.674;10.716;2022-12-29T05:34:03;7.30;55.60
7902;DHT22;3996;49.674;10.716;2022-12-29T05:36:29;7.20;55.90
7902;DHT22;3996;49.674;10.716;2022-12-29T05:38:55;7.20;55.60
7902;DHT22;3996;49.674;10.716;2022-12-29T05:41:20;7.10;56.10
7902;DHT22;3996;49.674;10.716;2022-12-29T05:43:46;7.10;56.10
7902;DHT22;3996;49.674;10.716;2022-12-29T05:46:11;7.10;56.20
7902;DHT22;3996;49.674;10.716;2022-12-29T05:48:37;7.00;56.70
7902;DHT22;3996;49.674;10.716;2022-12-29T05:51:03;6.90;56.40
7902;DHT22;3996;49.674;10.716;2022-12-29T05:53:28;6.90;57.40
7902;DHT22;3996;49.674;10.716;2022-12-29T05:55:54;6.90;57.30
7902;DHT22;3996;49.674;10.716;2022-12-29T05:58:20;6.90;57.50
7902;DHT22;3996;49.674;10.716;2022-12-29T06:00:45;6.90;57.60
7902;DHT22;3996;49.674;10.716;2022-12-29T06:03:11;7.00;57.70
7902;DHT22;3996;49.674;10.716;2022-12-29T06:05:37;7.00;56.70
7902;DHT22;3996;49.674;10.716;2022-12-29T06:08:03;7.10;56.10
7902;DHT22;3996;49.674;10.716;2022-12-29T06:10:28;7.20;54.90
7902;DHT22;3996;49.674;10.716;2022-12-29T06:12:54;7.20;54.70
7902;DHT22;3996;49.674;10.716;2022-12-29T06:15:20;7.20;54.50
7902;DHT22;3996;49.674;10.716;2022-12-29T06:17:45;7.20;54.20
7902;DHT22;3996;49.674;10.716;2022-12-29T06:20:11;7.20;54.80
7902;DHT22;3996;49.674;10.716;2022-12-29T06:22:37;7.20;55.60
7902;DHT22;3996;49.674;10.716;2022-12-29T06:25:03;7.20;55.30
7902;DHT22;3996;49.674;10.716;2022-12-29T06:27:29;7.20;55.30
7902;DHT22;3996;49.674;10.716;2022-12-29T06:29:54;7.10;55.60
7902;DHT22;3996;49.674;10.716;2022-12-29T06:32:20;7.10;56.40
7902;DHT22;3996;49.674;10.716;2022-12-29T06:34:45;7.00;58.80
7902;DHT22;3996;49.674;10.716;2022-12-29T06:37:11;6.90;59.20
7902;DHT22;3996;49.674;10.716;2022-12-29T06:39:37;6.90;60.00
7902;DHT22;3996;49.674;10.716;2022-12-29T06:42:03;6.90;60.00
7902;DHT22;3996;49.674;10.716;2022-12-29T06:44:29;6.90;60.30
7902;DHT22;3996;49.674;10.716;2022-12-29T06:46:55;6.90;60.70
7902;DHT22;3996;49.674;10.716;2022-12-29T06:49:20;7.00;61.30
7902;DHT22;3996;49.674;10.716;2022-12-29T06:51:46;7.00;60.50
7902;DHT22;3996;49.674;10.716;2022-12-29T06:54:12;6.90;60.40
7902;DHT22;3996;49.674;10.716;2022-12-29T06:56:37;7.00;59.80
7902;DHT22;3996;49.674;10.716;2022-12-29T06:59:03;7.00;59.50
7902;DHT22;3996;49.674;10.716;2022-12-29T07:01:29;7.10;59.50
7902;DHT22;3996;49.674;10.716;2022-12-29T07:03:54;7.10;60.00
7902;DHT22;3996;49.674;10.716;2022-12-29T07:06:20;7.10;60.80
7902;DHT22;3996;49.674;10.716;2022-12-29T07:08:46;7.10;60.20
7902;DHT22;3996;49.674;10.716;2022-12-29T07:11:11;7.10;61.00
7902;DHT22;3996;49.674;10.716;2022-12-29T07:13:37;7.10;60.20
7902;DHT22;3996;49.674;10.716;2022-12-29T07:16:07;7.10;60.00
7902;DHT22;3996;49.674;10.716;2022-12-29T07:18:33;7.20;58.40
7902;DHT22;3996;49.674;10.716;2022-12-29T07:20:59;7.20;57.90
7902;DHT22;3996;49.674;10.716;2022-12-29T07:23:24;7.20;57.00
7902;DHT22;3996;49.674;10.716;2022-12-29T07:25:50;7.30;56.80
7902;DHT22;3996;49.674;10.716;2022-12-29T07:28:16;7.40;56.40
7902;DHT22;3996;49.674;10.716;2022-12-29T07:30:41;7.40;56.40
7902;DHT22;3996;49.674;10.716;2022-12-29T07:33:07;7.40;56.40
7902;DHT22;3996;49.674;10.716;2022-12-29T07:35:34;7.50;55.70
7902;DHT22;3996;49.674;10.716;2022-12-29T07:38:00;7.50;56.50
7902;DHT22;3996;49.674;10.716;2022-12-29T07:40:25;7.50;57.80
7902;DHT22;3996;49.674;10.716;2022-12-29T07:42:51;7.40;57.90
7902;DHT22;3996;49.674;10.716;2022-12-29T07:45:16;7.40;58.30
7902;DHT22;3996;49.674;10.716;2022-12-29T07:47:42;7.30;59.40
7902;DHT22;3996;49.674;10.716;2022-12-29T07:50:08;7.30;60.20
7902;DHT22;3996;49.674;10.716;2022-12-29T07:52:33;7.40;60.50
7902;DHT22;3996;49.674;10.716;2022-12-29T07:54:59;7.40;60.60
7902;DHT22;3996;49.674;10.716;2022-12-29T07:57:24;7.40;62.00
7902;DHT22;3996;49.674;10.716;2022-12-29T07:59:50;7.40;60.60
7902;DHT22;3996;49.674;10.716;2022-12-29T08:02:15;7.60;59.90
7902;DHT22;3996;49.674;10.716;2022-12-29T08:04:41;7.80;58.50
7902;DHT22;3996;49.674;10.716;2022-12-29T08:07:06;7.90;57.60
7902;DHT22;3996;49.674;10.716;2022-12-29T08:09:32;8.00;56.40
7902;DHT22;3996;49.674;10.716;2022-12-29T08:11:58;8.10;54.30
7902;DHT22;3996;49.674;10.716;2022-12-29T08:14:23;8.20;53.40
7902;DHT22;3996;49.674;10.716;2022-12-29T08:16:49;8.40;52.00
7902;DHT22;3996;49.674;10.716;2022-12-29T08:19:14;8.40;51.40
7902;DHT22;3996;49.674;10.716;2022-12-29T08:21:40;8.50;51.00
7902;DHT22;3996;49.674;10.716;2022-12-29T08:24:06;8.50;51.00
7902;DHT22;3996;49.674;10.716;2022-12-29T08:26:33;8.60;50.40
7902;DHT22;3996;49.674;10.716;2022-12-29T08:28:59;8.60;50.40
7902;DHT22;3996;49.674;10.716;2022-12-29T08:31:24;8.60;50.30
7902;DHT22;3996;49.674;10.716;2022-12-29T08:33:50;8.60;49.80
7902;DHT22;3996;49.674;10.716;2022-12-29T08:36:16;8.60;49.50
7902;DHT22;3996;49.674;10.716;2022-12-29T08:38:42;8.60;49.60
7902;DHT22;3996;49.674;10.716;2022-12-29T08:41:07;8.70;49.10
7902;DHT22;3996;49.674;10.716;2022-12-29T08:43:33;8.80;49.20
7902;DHT22;3996;49.674;10.716;2022-12-29T08:45:59;9.00;47.60
7902;DHT22;3996;49.674;10.716;2022-12-29T08:48:25;9.20;46.50
7902;DHT22;3996;49.674;10.716;2022-12-29T08:50:51;9.10;46.00
7902;DHT22;3996;49.674;10.716;2022-12-29T08:53:17;9.00;46.50
7902;DHT22;3996;49.674;10.716;2022-12-29T08:55:54;9.00;46.50
7902;DHT22;3996;49.674;10.716;2022-12-29T08:58:20;8.90;46.20
7902;DHT22;3996;49.674;10.716;2022-12-29T09:00:46;8.90;46.00
7902;DHT22;3996;49.674;10.716;2022-12-29T09:03:11;8.90;45.50
7902;DHT22;3996;49.674;10.716;2022-12-29T09:05:37;8.90;44.90
7902;DHT22;3996;49.674;10.716;2022-12-29T09:08:03;9.00;44.80
7902;DHT22;3996;49.674;10.716;2022-12-29T09:10:29;9.00;44.60
7902;DHT22;3996;49.674;10.716;2022-12-29T09:12:55;9.00;44.50
7902;DHT22;3996;49.674;10.716;2022-12-29T09:15:21;9.00;44.10
7902;DHT22;3996;49.674;10.716;2022-12-29T09:17:46;9.00;43.70
7902;DHT22;3996;49.674;10.716;2022-12-29T09:20:17;9.00;43.70
7902;DHT22;3996;49.674;10.716;2022-12-29T09:22:44;9.00;44.10
7902;DHT22;3996;49.674;10.716;2022-12-29T09:25:10;9.00;44.20
7902;DHT22;3996;49.674;10.716;2022-12-29T09:27:36;9.00;45.00
7902;DHT22;3996;49.674;10.716;2022-12-29T09:30:08;9.00;45.00
7902;DHT22;3996;49.674;10.716;2022-12-29T09:32:34;9.00;44.50
7902;DHT22;3996;49.674;10.716;2022-12-29T09:35:00;9.00;45.00
7902;DHT22;3996;49.674;10.716;2022-12-29T09:37:26;9.10;44.20
7902;DHT22;3996;49.674;10.716;2022-12-29T09:39:51;9.10;43.90
7902;DHT22;3996;49.674;10.716;2022-12-29T09:42:32;9.10;43.60
7902;DHT22;3996;49.674;10.716;2022-12-29T09:45:10;9.20;43.60
7902;DHT22;3996;49.674;10.716;2022-12-29T09:47:37;9.20;44.00
7902;DHT22;3996;49.674;10.716;2022-12-29T09:52:50;9.20;44.50
7902;DHT22;3996;49.674;10.716;2022-12-29T09:55:26;9.20;44.70
7902;DHT22;3996;49.674;10.716;2022-12-29T09:58:14;9.20;44.30
7902;DHT22;3996;49.674;10.716;2022-12-29T10:00:56;9.20;44.70
7902;DHT22;3996;49.674;10.716;2022-12-29T10:03:27;9.30;44.70
7902;DHT22;3996;49.674;10.716;2022-12-29T10:08:47;9.20;45.10
7902;DHT22;3996;49.674;10.716;2022-12-29T10:11:53;9.30;44.60
7902;DHT22;3996;49.674;10.716;2022-12-29T10:14:50;9.40;44.20
7902;DHT22;3996;49.674;10.716;2022-12-29T10:25:38;9.60;44.10
7902;DHT22;3996;49.674;10.716;2022-12-29T10:31:22;9.70;43.60
7902;DHT22;3996;49.674;10.716;2022-12-29T10:33:58;9.80;44.00
7902;DHT22;3996;49.674;10.716;2022-12-29T10:36:41;9.90;43.70
7902;DHT22;3996;49.674;10.716;2022-12-29T10:39:23;10.00;43.10
7902;DHT22;3996;49.674;10.716;2022-12-29T10:42:18;10.00;43.80
7902;DHT22;3996;49.674;10.716;2022-12-29T10:44:46;10.00;44.10
7902;DHT22;3996;49.674;10.716;2022-12-29T10:47:16;10.00;44.00
7902;DHT22;3996;49.674;10.716;2022-12-29T10:49:45;10.00;44.60
7902;DHT22;3996;49.674;10.716;2022-12-29T10:52:14;10.00;45.20
7902;DHT22;3996;49.674;10.716;2022-12-29T10:54:57;10.00;45.60
7902;DHT22;3996;49.674;10.716;2022-12-29T10:57:41;10.00;45.30
7902;DHT22;3996;49.674;10.716;2022-12-29T11:00:15;10.00;46.00
7902;DHT22;3996;49.674;10.716;2022-12-29T11:08:26;10.20;45.80
7902;DHT22;3996;49.674;10.716;2022-12-29T11:11:06;10.30;45.50
7902;DHT22;3996;49.674;10.716;2022-12-29T11:13:35;10.30;45.10
7902;DHT22;3996;49.674;10.716;2022-12-29T11:16:01;10.40;44.80
7902;DHT22;3996;49.674;10.716;2022-12-29T11:18:36;10.50;45.20
7902;DHT22;3996;49.674;10.716;2022-12-29T11:21:05;10.60;44.80
7902;DHT22;3996;49.674;10.716;2022-12-29T11:28:37;10.70;45.00
7902;DHT22;3996;49.674;10.716;2022-12-29T11:31:04;10.70;43.30
7902;DHT22;3996;49.674;10.716;2022-12-29T11:33:31;10.70;44.30
7902;DHT22;3996;49.674;10.716;2022-12-29T11:36:21;10.70;44.80
7902;DHT22;3996;49.674;10.716;2022-12-29T11:38:52;10.60;44.40
7902;DHT22;3996;49.674;10.716;2022-12-29T11:41:30;10.70;44.50
7902;DHT22;3996;49.674;10.716;2022-12-29T11:43:58;10.70;45.20
7902;DHT22;3996;49.674;10.716;2022-12-29T11:46:31;10.80;44.90
7902;DHT22;3996;49.674;10.716;2022-12-29T11:48:58;10.90;44.80
7902;DHT22;3996;49.674;10.716;2022-12-29T11:51:29;10.90;44.80
7902;DHT22;3996;49.674;10.716;2022-12-29T11:54:00;10.80;45.80
7902;DHT22;3996;49.674;10.716;2022-12-29T11:56:39;10.80;46.00
7902;DHT22;3996;49.674;10.716;2022-12-29T12:01:58;11.00;46.40
7902;DHT22;3996;49.674;10.716;2022-12-29T12:04:27;11.10;46.90
7902;DHT22;3996;49.674;10.716;2022-12-29T12:09:26;11.10;47.10
7902;DHT22;3996;49.674;10.716;2022-12-29T12:11:54;11.00;47.00
7902;DHT22;3996;49.674;10.716;2022-12-29T12:14:26;10.90;47.00
7902;DHT22;3996;49.674;10.716;2022-12-29T12:17:02;10.90;47.70
7902;DHT22;3996;49.674;10.716;2022-12-29T12:24:59;11.00;49.00
7902;DHT22;3996;49.674;10.716;2022-12-29T12:27:37;10.90;48.00
7902;DHT22;3996;49.674;10.716;2022-12-29T12:30:14;10.90;48.20
7902;DHT22;3996;49.674;10.716;2022-12-29T12:32:48;10.90;48.10
7902;DHT22;3996;49.674;10.716;2022-12-29T12:38:12;10.80;47.50
7902;DHT22;3996;49.674;10.716;2022-12-29T13:02:25;10.90;48.50
7902;DHT22;3996;49.674;10.716;2022-12-29T13:07:59;11.00;49.10
7902;DHT22;3996;49.674;10.716;2022-12-29T13:24:13;11.40;46.30
7902;DHT22;3996;49.674;10.716;2022-12-29T13:26:54;11.50;46.30
7902;DHT22;3996;49.674;10.716;2022-12-29T13:29:39;11.50;46.10
7902;DHT22;3996;49.674;10.716;2022-12-29T13:32:26;11.50;45.70
7902;DHT22;3996;49.674;10.716;2022-12-29T13:38:00;11.50;46.30
7902;DHT22;3996;49.674;10.716;2022-12-29T13:40:32;11.50;46.60
7902;DHT22;3996;49.674;10.716;2022-12-29T13:43:00;11.50;46.30
7902;DHT22;3996;49.674;10.716;2022-12-29T13:45:29;11.50;47.00
7902;DHT22;3996;49.674;10.716;2022-12-29T13:50:29;11.40;48.00
7902;DHT22;3996;49.674;10.716;2022-12-29T13:53:25;11.30;48.60
7902;DHT22;3996;49.674;10.716;2022-12-29T13:56:06;11.30;49.50
7902;DHT22;3996;49.674;10.716;2022-12-29T13:58:49;11.30;50.00
7902;DHT22;3996;49.674;10.716;2022-12-29T14:01:35;11.20;50.20
7902;DHT22;3996;49.674;10.716;2022-12-29T14:04:14;11.20;50.40
7902;DHT22;3996;49.674;10.716;2022-12-29T14:06:40;11.20;50.30
7902;DHT22;3996;49.674;10.716;2022-12-29T14:09:31;11.20;50.30
7902;DHT22;3996;49.674;10.716;2022-12-29T14:11:58;11.10;50.80
7902;DHT22;3996;49.674;10.716;2022-12-29T14:14:27;11.20;50.60
7902;DHT22;3996;49.674;10.716;2022-12-29T14:16:54;11.20;50.30
7902;DHT22;3996;49.674;10.716;2022-12-29T14:19:29;11.20;49.80
7902;DHT22;3996;49.674;10.716;2022-12-29T14:22:01;11.20;50.20
7902;DHT22;3996;49.674;10.716;2022-12-29T14:34:54;11.00;51.70
7902;DHT22;3996;49.674;10.716;2022-12-29T14:37:27;11.00;51.20
7902;DHT22;3996;49.674;10.716;2022-12-29T14:40:19;11.00;51.00
7902;DHT22;3996;49.674;10.716;2022-12-29T14:42:49;11.00;50.40
7902;DHT22;3996;49.674;10.716;2022-12-29T14:48:00;11.10;49.60
7902;DHT22;3996;49.674;10.716;2022-12-29T14:50:42;11.10;49.50
7902;DHT22;3996;49.674;10.716;2022-12-29T14:56:09;11.10;48.80
7902;DHT22;3996;49.674;10.716;2022-12-29T15:01:39;11.10;48.90
7902;DHT22;3996;49.674;10.716;2022-12-29T15:04:21;11.00;49.00
7902;DHT22;3996;49.674;10.716;2022-12-29T15:06:49;11.00;49.10
7902;DHT22;3996;49.674;10.716;2022-12-29T15:11:59;11.00;49.70
7902;DHT22;3996;49.674;10.716;2022-12-29T15:14:38;10.90;49.80
7902;DHT22;3996;49.674;10.716;2022-12-29T15:17:24;10.90;49.60
7902;DHT22;3996;49.674;10.716;2022-12-29T15:19:50;10.90;50.00
7902;DHT22;3996;49.674;10.716;2022-12-29T15:22:16;10.90;50.00
7902;DHT22;3996;49.674;10.716;2022-12-29T15:24:44;10.90;50.20
7902;DHT22;3996;49.674;10.716;2022-12-29T15:27:14;10.80;50.70
7902;DHT22;3996;49.674;10.716;2022-12-29T15:29:43;10.70;51.00
7902;DHT22;3996;49.674;10.716;2022-12-29T15:32:29;10.70;51.30
7902;DHT22;3996;49.674;10.716;2022-12-29T15:34:57;10.70;51.40
7902;DHT22;3996;49.674;10.716;2022-12-29T15:37:33;10.70;51.50
7902;DHT22;3996;49.674;10.716;2022-12-29T15:40:01;10.70;51.60
7902;DHT22;3996;49.674;10.716;2022-12-29T15:44:57;10.70;51.90
7902;DHT22;3996;49.674;10.716;2022-12-29T15:47:29;10.60;52.20
7902;DHT22;3996;49.674;10.716;2022-12-29T15:50:09;10.50;53.30
7902;DHT22;3996;49.674;10.716;2022-12-29T15:52:39;10.50;53.20
7902;DHT22;3996;49.674;10.716;2022-12-29T15:55:06;10.50;53.50
7902;DHT22;3996;49.674;10.716;2022-12-29T15:57:43;10.50;53.60
7902;DHT22;3996;49.674;10.716;2022-12-29T16:00:41;10.40;53.80
7902;DHT22;3996;49.674;10.716;2022-12-29T16:03:12;10.40;53.80
7902;DHT22;3996;49.674;10.716;2022-12-29T16:05:39;10.40;54.40
7902;DHT22;3996;49.674;10.716;2022-12-29T16:10:49;10.30;54.80
7902;DHT22;3996;49.674;10.716;2022-12-29T16:15:41;10.30;54.50
7902;DHT22;3996;49.674;10.716;2022-12-29T16:18:26;10.30;55.40
7902;DHT22;3996;49.674;10.716;2022-12-29T16:20:53;10.30;56.20
7902;DHT22;3996;49.674;10.716;2022-12-29T16:23:22;10.30;57.60
7902;DHT22;3996;49.674;10.716;2022-12-29T16:25:49;10.30;58.00
7902;DHT22;3996;49.674;10.716;2022-12-29T16:28:20;10.30;59.00
7902;DHT22;3996;49.674;10.716;2022-12-29T16:30:47;10.20;61.10
7902;DHT22;3996;49.674;10.716;2022-12-29T16:36:02;10.10;65.90
7902;DHT22;3996;49.674;10.716;2022-12-29T16:38:33;10.00;68.10
7902;DHT22;3996;49.674;10.716;2022-12-29T16:41:01;10.00;69.50
7902;DHT22;3996;49.674;10.716;2022-12-29T16:43:32;10.10;69.90
7902;DHT22;3996;49.674;10.716;2022-12-29T16:48:27;10.00;73.50
7902;DHT22;3996;49.674;10.716;2022-12-29T16:51:02;9.90;76.00
7902;DHT22;3996;49.674;10.716;2022-12-29T16:53:34;9.90;77.80
7902;DHT22;3996;49.674;10.716;2022-12-29T16:56:13;9.80;82.10
7902;DHT22;3996;49.674;10.716;2022-12-29T16:58:40;9.60;76.20
7902;DHT22;3996;49.674;10.716;2022-12-29T17:01:06;9.50;78.10
7902;DHT22;3996;49.674;10.716;2022-12-29T17:03:54;9.50;76.50
7902;DHT22;3996;49.674;10.716;2022-12-29T17:06:22;9.50;76.60
7902;DHT22;3996;49.674;10.716;2022-12-29T17:08:48;9.50;77.30
7902;DHT22;3996;49.674;10.716;2022-12-29T17:11:36;9.40;78.00
7902;DHT22;3996;49.674;10.716;2022-12-29T17:16:51;9.30;77.60
7902;DHT22;3996;49.674;10.716;2022-12-29T17:19:20;9.30;76.30
7902;DHT22;3996;49.674;10.716;2022-12-29T17:21:46;9.20;78.10
7902;DHT22;3996;49.674;10.716;2022-12-29T17:24:19;9.20;79.10
7902;DHT22;3996;49.674;10.716;2022-12-29T17:27:05;9.20;79.20
7902;DHT22;3996;49.674;10.716;2022-12-29T17:29:38;9.10;80.90
7902;DHT22;3996;49.674;10.716;2022-12-29T17:32:12;9.10;81.10
7902;DHT22;3996;49.674;10.716;2022-12-29T17:34:39;9.00;81.20
7902;DHT22;3996;49.674;10.716;2022-12-29T17:37:30;9.10;81.30
7902;DHT22;3996;49.674;10.716;2022-12-29T17:39:56;9.10;81.00
7902;DHT22;3996;49.674;10.716;2022-12-29T17:42:21;9.10;80.60
7902;DHT22;3996;49.674;10.716;2022-12-29T17:44:47;9.00;80.40
7902;DHT22;3996;49.674;10.716;2022-12-29T17:47:14;9.00;80.10
7902;DHT22;3996;49.674;10.716;2022-12-29T17:49:40;9.00;79.50
7902;DHT22;3996;49.674;10.716;2022-12-29T17:52:11;8.90;79.40
7902;DHT22;3996;49.674;10.716;2022-12-29T17:54:42;8.80;79.90
7902;DHT22;3996;49.674;10.716;2022-12-29T17:57:15;8.80;80.20
7902;DHT22;3996;49.674;10.716;2022-12-29T17:59:42;8.70;80.20
7902;DHT22;3996;49.674;10.716;2022-12-29T18:02:37;8.70;80.90
7902;DHT22;3996;49.674;10.716;2022-12-29T18:05:04;8.70;80.20
7902;DHT22;3996;49.674;10.716;2022-12-29T18:07:30;8.70;79.20
7902;DHT22;3996;49.674;10.716;2022-12-29T18:09:56;8.60;79.90
7902;DHT22;3996;49.674;10.716;2022-12-29T18:14:52;8.40;82.10
7902;DHT22;3996;49.674;10.716;2022-12-29T18:17:18;8.40;81.90
7902;DHT22;3996;49.674;10.716;2022-12-29T18:19:43;8.40;81.00
7902;DHT22;3996;49.674;10.716;2022-12-29T18:22:09;8.50;79.90
7902;DHT22;3996;49.674;10.716;2022-12-29T18:24:35;8.40;80.70
7902;DHT22;3996;49.674;10.716;2022-12-29T18:27:08;8.40;81.00
7902;DHT22;3996;49.674;10.716;2022-12-29T18:29:35;8.40;81.40
7902;DHT22;3996;49.674;10.716;2022-12-29T18:32:01;8.30;82.20
7902;DHT22;3996;49.674;10.716;2022-12-29T18:34:27;8.30;83.40
7902;DHT22;3996;49.674;10.716;2022-12-29T18:36:52;8.40;84.00
7902;DHT22;3996;49.674;10.716;2022-12-29T18:39:18;8.40;84.20
7902;DHT22;3996;49.674;10.716;2022-12-29T18:41:43;8.40;84.40
7902;DHT22;3996;49.674;10.716;2022-12-29T18:44:12;8.30;84.80
7902;DHT22;3996;49.674;10.716;2022-12-29T18:46:38;8.20;85.80
7902;DHT22;3996;49.674;10.716;2022-12-29T18:49:04;8.30;85.80
7902;DHT22;3996;49.674;10.716;2022-12-29T18:51:30;8.30;85.80
7902;DHT22;3996;49.674;10.716;2022-12-29T18:53:55;8.20;86.20
7902;DHT22;3996;49.674;10.716;2022-12-29T18:56:21;8.20;86.70
7902;DHT22;3996;49.674;10.716;2022-12-29T18:58:47;8.10;87.20